Terminal Aerodrome Forecast
Issued by NWS Blacksburg, VA

Home | Current Version | Previous Version | Text Only | Print | Product List | Glossary On
Versions: 1 2 3 4 5 6 7 8 9 10 11 12 13 14 15 16 17 18 19 20 21 22 23 24 25 26 27 28 29
000
FTUS41 KRNK 011746
TAFLYH
TAF
KLYH 011746Z 0118/0218 02004KT P6SM SCT050
     FM012100 07005KT P6SM SCT050
     FM020800 00000KT 3SM BR SCT100
     FM021000 00000KT 2SM BR SCT100
     FM021400 23002KT P6SM SCT050=

USA.gov is the U.S. government's official web portal to all federal, state and local government web resources and services.